sensor_id;sensor_type;location;lat;lon;timestamp;P1;durP1;ratioP1;P2;durP2;ratioP2
15716;SDS011;7960;50.908;4.204;2022-12-07T00:00:19;23.20;;;15.60;;
15716;SDS011;7960;50.908;4.204;2022-12-07T00:02:46;20.97;;;14.63;;
15716;SDS011;7960;50.908;4.204;2022-12-07T00:05:13;25.17;;;14.17;;
15716;SDS011;7960;50.908;4.204;2022-12-07T00:07:40;19.50;;;14.37;;
15716;SDS011;7960;50.908;4.204;2022-12-07T00:10:07;20.63;;;14.23;;
15716;SDS011;7960;50.908;4.204;2022-12-07T00:12:35;22.63;;;14.83;;
15716;SDS011;7960;50.908;4.204;2022-12-07T00:15:02;20.87;;;14.57;;
15716;SDS011;7960;50.908;4.204;2022-12-07T00:17:29;21.80;;;14.53;;
15716;SDS011;7960;50.908;4.204;2022-12-07T00:19:56;24.30;;;14.67;;
15716;SDS011;7960;50.908;4.204;2022-12-07T00:22:23;21.73;;;14.40;;
15716;SDS011;7960;50.908;4.204;2022-12-07T00:24:50;19.67;;;13.77;;
15716;SDS011;7960;50.908;4.204;2022-12-07T00:27:17;20.77;;;14.90;;
15716;SDS011;7960;50.908;4.204;2022-12-07T00:29:45;18.43;;;13.93;;
15716;SDS011;7960;50.908;4.204;2022-12-07T00:32:12;20.23;;;13.80;;
15716;SDS011;7960;50.908;4.204;2022-12-07T00:34:38;19.33;;;14.00;;
15716;SDS011;7960;50.908;4.204;2022-12-07T00:37:05;22.40;;;14.73;;
15716;SDS011;7960;50.908;4.204;2022-12-07T00:39:32;21.00;;;14.83;;
15716;SDS011;7960;50.908;4.204;2022-12-07T00:41:59;19.30;;;14.40;;
15716;SDS011;7960;50.908;4.204;2022-12-07T00:44:26;21.93;;;14.80;;
15716;SDS011;7960;50.908;4.204;2022-12-07T00:46:54;19.50;;;14.30;;
15716;SDS011;7960;50.908;4.204;2022-12-07T00:49:21;18.27;;;13.37;;
15716;SDS011;7960;50.908;4.204;2022-12-07T00:51:48;19.97;;;14.07;;
15716;SDS011;7960;50.908;4.204;2022-12-07T00:54:15;22.53;;;14.73;;
15716;SDS011;7960;50.908;4.204;2022-12-07T00:56:42;22.43;;;13.90;;
15716;SDS011;7960;50.908;4.204;2022-12-07T00:59:10;23.43;;;14.27;;
15716;SDS011;7960;50.908;4.204;2022-12-07T01:01:39;19.50;;;14.13;;
15716;SDS011;7960;50.908;4.204;2022-12-07T01:04:07;19.40;;;12.80;;
15716;SDS011;7960;50.908;4.204;2022-12-07T01:06:34;17.00;;;13.47;;
15716;SDS011;7960;50.908;4.204;2022-12-07T01:09:02;18.17;;;14.23;;
15716;SDS011;7960;50.908;4.204;2022-12-07T01:11:30;21.17;;;14.23;;
15716;SDS011;7960;50.908;4.204;2022-12-07T01:13:57;20.77;;;14.00;;
15716;SDS011;7960;50.908;4.204;2022-12-07T01:16:27;19.30;;;14.47;;
15716;SDS011;7960;50.908;4.204;2022-12-07T01:18:55;21.03;;;13.97;;
15716;SDS011;7960;50.908;4.204;2022-12-07T01:21:25;20.53;;;13.53;;
15716;SDS011;7960;50.908;4.204;2022-12-07T01:23:54;15.53;;;12.37;;
15716;SDS011;7960;50.908;4.204;2022-12-07T01:26:23;14.73;;;12.53;;
15716;SDS011;7960;50.908;4.204;2022-12-07T01:28:51;18.17;;;13.73;;
15716;SDS011;7960;50.908;4.204;2022-12-07T01:31:23;20.20;;;13.23;;
15716;SDS011;7960;50.908;4.204;2022-12-07T01:33:51;17.87;;;12.37;;
15716;SDS011;7960;50.908;4.204;2022-12-07T01:36:20;17.07;;;12.87;;
15716;SDS011;7960;50.908;4.204;2022-12-07T01:38:50;17.33;;;12.77;;
15716;SDS011;7960;50.908;4.204;2022-12-07T01:41:21;19.17;;;12.00;;
15716;SDS011;7960;50.908;4.204;2022-12-07T01:44:10;15.40;;;12.30;;
15716;SDS011;7960;50.908;4.204;2022-12-07T01:46:42;16.77;;;11.83;;
15716;SDS011;7960;50.908;4.204;2022-12-07T01:49:13;15.60;;;11.23;;
15716;SDS011;7960;50.908;4.204;2022-12-07T01:51:51;15.23;;;10.50;;
15716;SDS011;7960;50.908;4.204;2022-12-07T01:54:24;18.10;;;10.47;;
15716;SDS011;7960;50.908;4.204;2022-12-07T01:56:52;17.23;;;9.23;;
15716;SDS011;7960;50.908;4.204;2022-12-07T01:59:23;12.60;;;9.87;;
15716;SDS011;7960;50.908;4.204;2022-12-07T02:01:52;12.27;;;10.53;;
15716;SDS011;7960;50.908;4.204;2022-12-07T02:04:21;16.23;;;10.27;;
15716;SDS011;7960;50.908;4.204;2022-12-07T02:06:48;15.37;;;10.63;;
15716;SDS011;7960;50.908;4.204;2022-12-07T02:09:15;14.87;;;10.37;;
15716;SDS011;7960;50.908;4.204;2022-12-07T02:11:44;14.33;;;9.50;;
15716;SDS011;7960;50.908;4.204;2022-12-07T02:14:11;16.13;;;10.70;;
15716;SDS011;7960;50.908;4.204;2022-12-07T02:16:40;16.23;;;9.53;;
15716;SDS011;7960;50.908;4.204;2022-12-07T02:19:21;13.93;;;9.67;;
15716;SDS011;7960;50.908;4.204;2022-12-07T02:22:16;12.10;;;9.07;;
15716;SDS011;7960;50.908;4.204;2022-12-07T02:24:57;12.27;;;8.97;;
15716;SDS011;7960;50.908;4.204;2022-12-07T02:27:38;14.50;;;8.83;;
15716;SDS011;7960;50.908;4.204;2022-12-07T02:30:13;11.07;;;9.07;;
15716;SDS011;7960;50.908;4.204;2022-12-07T02:32:44;10.53;;;8.50;;
15716;SDS011;7960;50.908;4.204;2022-12-07T02:35:17;12.37;;;9.00;;
15716;SDS011;7960;50.908;4.204;2022-12-07T02:37:50;10.97;;;8.40;;
15716;SDS011;7960;50.908;4.204;2022-12-07T02:40:25;13.23;;;8.90;;
15716;SDS011;7960;50.908;4.204;2022-12-07T02:42:57;12.07;;;8.90;;
15716;SDS011;7960;50.908;4.204;2022-12-07T02:45:31;14.40;;;8.43;;
15716;SDS011;7960;50.908;4.204;2022-12-07T02:48:00;13.13;;;9.13;;
15716;SDS011;7960;50.908;4.204;2022-12-07T02:50:28;11.60;;;8.63;;
15716;SDS011;7960;50.908;4.204;2022-12-07T02:52:55;12.80;;;8.43;;
15716;SDS011;7960;50.908;4.204;2022-12-07T02:55:23;12.57;;;8.57;;
15716;SDS011;7960;50.908;4.204;2022-12-07T02:58:00;14.70;;;8.83;;
15716;SDS011;7960;50.908;4.204;2022-12-07T03:00:44;13.30;;;9.33;;
15716;SDS011;7960;50.908;4.204;2022-12-07T03:03:20;13.47;;;9.10;;
15716;SDS011;7960;50.908;4.204;2022-12-07T03:05:52;13.73;;;9.93;;
15716;SDS011;7960;50.908;4.204;2022-12-07T03:08:31;14.97;;;10.67;;
15716;SDS011;7960;50.908;4.204;2022-12-07T03:11:07;17.03;;;10.03;;
15716;SDS011;7960;50.908;4.204;2022-12-07T03:13:38;13.37;;;9.80;;
15716;SDS011;7960;50.908;4.204;2022-12-07T03:16:10;12.80;;;9.57;;
15716;SDS011;7960;50.908;4.204;2022-12-07T03:18:43;14.07;;;9.20;;
15716;SDS011;7960;50.908;4.204;2022-12-07T03:21:14;13.57;;;10.20;;
15716;SDS011;7960;50.908;4.204;2022-12-07T03:23:44;15.67;;;9.77;;
15716;SDS011;7960;50.908;4.204;2022-12-07T03:26:14;13.10;;;10.00;;
15716;SDS011;7960;50.908;4.204;2022-12-07T03:28:46;13.83;;;10.33;;
15716;SDS011;7960;50.908;4.204;2022-12-07T03:31:17;16.23;;;9.93;;
15716;SDS011;7960;50.908;4.204;2022-12-07T03:33:49;14.27;;;10.37;;
15716;SDS011;7960;50.908;4.204;2022-12-07T03:36:24;17.30;;;10.90;;
15716;SDS011;7960;50.908;4.204;2022-12-07T03:38:57;13.03;;;10.10;;
15716;SDS011;7960;50.908;4.204;2022-12-07T03:41:30;15.63;;;11.33;;
15716;SDS011;7960;50.908;4.204;2022-12-07T03:44:01;15.23;;;10.97;;
15716;SDS011;7960;50.908;4.204;2022-12-07T03:46:32;15.53;;;11.63;;
15716;SDS011;7960;50.908;4.204;2022-12-07T03:49:05;19.00;;;10.87;;
15716;SDS011;7960;50.908;4.204;2022-12-07T03:51:38;14.90;;;11.37;;
15716;SDS011;7960;50.908;4.204;2022-12-07T03:54:11;13.80;;;11.60;;
15716;SDS011;7960;50.908;4.204;2022-12-07T03:56:42;15.33;;;11.30;;
15716;SDS011;7960;50.908;4.204;2022-12-07T03:59:10;15.13;;;11.17;;
15716;SDS011;7960;50.908;4.204;2022-12-07T04:01:42;15.40;;;10.90;;
15716;SDS011;7960;50.908;4.204;2022-12-07T04:04:09;15.30;;;10.77;;
15716;SDS011;7960;50.908;4.204;2022-12-07T04:06:36;15.07;;;10.93;;
15716;SDS011;7960;50.908;4.204;2022-12-07T04:09:03;14.50;;;11.23;;
15716;SDS011;7960;50.908;4.204;2022-12-07T04:11:30;16.63;;;11.23;;
15716;SDS011;7960;50.908;4.204;2022-12-07T04:13:57;17.30;;;11.80;;
15716;SDS011;7960;50.908;4.204;2022-12-07T04:16:43;20.63;;;12.27;;
15716;SDS011;7960;50.908;4.204;2022-12-07T04:19:10;15.27;;;11.97;;
15716;SDS011;7960;50.908;4.204;2022-12-07T04:21:37;19.33;;;12.90;;
15716;SDS011;7960;50.908;4.204;2022-12-07T04:24:04;18.80;;;12.27;;
15716;SDS011;7960;50.908;4.204;2022-12-07T04:26:31;18.37;;;12.23;;
15716;SDS011;7960;50.908;4.204;2022-12-07T04:28:58;14.97;;;11.87;;
15716;SDS011;7960;50.908;4.204;2022-12-07T04:31:25;18.30;;;12.27;;
15716;SDS011;7960;50.908;4.204;2022-12-07T04:33:54;25.37;;;12.87;;
15716;SDS011;7960;50.908;4.204;2022-12-07T04:36:20;19.30;;;13.37;;
15716;SDS011;7960;50.908;4.204;2022-12-07T04:38:47;21.07;;;13.47;;
15716;SDS011;7960;50.908;4.204;2022-12-07T04:41:14;23.50;;;13.67;;
15716;SDS011;7960;50.908;4.204;2022-12-07T04:43:41;18.60;;;12.63;;
15716;SDS011;7960;50.908;4.204;2022-12-07T04:46:08;21.07;;;14.47;;
15716;SDS011;7960;50.908;4.204;2022-12-07T04:48:35;19.53;;;13.80;;
15716;SDS011;7960;50.908;4.204;2022-12-07T04:51:03;21.93;;;13.83;;
15716;SDS011;7960;50.908;4.204;2022-12-07T04:53:31;17.53;;;13.40;;
15716;SDS011;7960;50.908;4.204;2022-12-07T04:55:58;20.37;;;13.50;;
15716;SDS011;7960;50.908;4.204;2022-12-07T04:58:26;23.47;;;13.87;;
15716;SDS011;7960;50.908;4.204;2022-12-07T05:00:53;20.17;;;13.33;;
15716;SDS011;7960;50.908;4.204;2022-12-07T05:03:21;21.90;;;12.97;;
15716;SDS011;7960;50.908;4.204;2022-12-07T05:05:48;19.97;;;13.27;;
15716;SDS011;7960;50.908;4.204;2022-12-07T05:08:16;21.40;;;13.47;;
15716;SDS011;7960;50.908;4.204;2022-12-07T05:10:43;19.03;;;12.60;;
15716;SDS011;7960;50.908;4.204;2022-12-07T05:13:10;18.63;;;12.33;;
15716;SDS011;7960;50.908;4.204;2022-12-07T05:15:37;16.87;;;12.27;;
15716;SDS011;7960;50.908;4.204;2022-12-07T05:18:04;17.70;;;13.17;;
15716;SDS011;7960;50.908;4.204;2022-12-07T05:20:31;18.30;;;12.60;;
15716;SDS011;7960;50.908;4.204;2022-12-07T05:22:58;17.90;;;12.80;;
15716;SDS011;7960;50.908;4.204;2022-12-07T05:25:26;16.83;;;11.80;;
15716;SDS011;7960;50.908;4.204;2022-12-07T05:27:54;18.63;;;12.23;;
15716;SDS011;7960;50.908;4.204;2022-12-07T05:30:21;18.37;;;12.37;;
15716;SDS011;7960;50.908;4.204;2022-12-07T05:32:49;15.87;;;12.37;;
15716;SDS011;7960;50.908;4.204;2022-12-07T05:35:16;18.60;;;12.80;;
15716;SDS011;7960;50.908;4.204;2022-12-07T05:37:43;19.67;;;12.30;;
15716;SDS011;7960;50.908;4.204;2022-12-07T05:40:11;18.20;;;11.97;;
15716;SDS011;7960;50.908;4.204;2022-12-07T05:42:40;15.90;;;11.70;;
15716;SDS011;7960;50.908;4.204;2022-12-07T05:45:06;18.17;;;12.27;;
15716;SDS011;7960;50.908;4.204;2022-12-07T05:47:34;15.97;;;12.13;;
15716;SDS011;7960;50.908;4.204;2022-12-07T05:50:01;16.10;;;11.93;;
15716;SDS011;7960;50.908;4.204;2022-12-07T05:52:28;17.03;;;11.60;;
15716;SDS011;7960;50.908;4.204;2022-12-07T05:54:55;15.00;;;10.90;;
15716;SDS011;7960;50.908;4.204;2022-12-07T05:57:22;14.10;;;10.03;;
15716;SDS011;7960;50.908;4.204;2022-12-07T05:59:50;15.67;;;10.83;;
15716;SDS011;7960;50.908;4.204;2022-12-07T06:02:16;17.30;;;10.97;;
15716;SDS011;7960;50.908;4.204;2022-12-07T06:04:44;16.63;;;11.10;;
15716;SDS011;7960;50.908;4.204;2022-12-07T06:07:13;13.00;;;10.07;;
15716;SDS011;7960;50.908;4.204;2022-12-07T06:09:41;13.23;;;10.53;;
15716;SDS011;7960;50.908;4.204;2022-12-07T06:12:08;15.70;;;11.40;;
15716;SDS011;7960;50.908;4.204;2022-12-07T06:14:55;17.63;;;11.20;;
15716;SDS011;7960;50.908;4.204;2022-12-07T06:17:22;18.83;;;11.80;;
15716;SDS011;7960;50.908;4.204;2022-12-07T06:19:49;17.13;;;11.27;;
15716;SDS011;7960;50.908;4.204;2022-12-07T06:22:16;13.93;;;10.63;;
15716;SDS011;7960;50.908;4.204;2022-12-07T06:24:43;13.57;;;10.30;;
15716;SDS011;7960;50.908;4.204;2022-12-07T06:27:10;12.43;;;10.10;;
15716;SDS011;7960;50.908;4.204;2022-12-07T06:29:37;13.57;;;10.60;;
15716;SDS011;7960;50.908;4.204;2022-12-07T06:32:05;13.57;;;10.20;;
15716;SDS011;7960;50.908;4.204;2022-12-07T06:34:32;16.93;;;11.70;;
15716;SDS011;7960;50.908;4.204;2022-12-07T06:36:59;14.90;;;11.30;;
15716;SDS011;7960;50.908;4.204;2022-12-07T06:39:27;15.33;;;11.13;;
15716;SDS011;7960;50.908;4.204;2022-12-07T06:41:54;15.67;;;11.27;;
15716;SDS011;7960;50.908;4.204;2022-12-07T06:44:22;14.83;;;12.07;;
15716;SDS011;7960;50.908;4.204;2022-12-07T06:46:49;16.43;;;10.77;;
15716;SDS011;7960;50.908;4.204;2022-12-07T06:49:18;14.30;;;10.97;;
15716;SDS011;7960;50.908;4.204;2022-12-07T06:51:45;17.40;;;11.23;;
15716;SDS011;7960;50.908;4.204;2022-12-07T06:54:13;14.60;;;11.03;;
15716;SDS011;7960;50.908;4.204;2022-12-07T06:56:40;15.13;;;11.43;;
15716;SDS011;7960;50.908;4.204;2022-12-07T06:59:07;16.50;;;11.40;;
15716;SDS011;7960;50.908;4.204;2022-12-07T07:01:35;18.47;;;10.70;;
15716;SDS011;7960;50.908;4.204;2022-12-07T07:04:02;16.27;;;9.63;;
15716;SDS011;7960;50.908;4.204;2022-12-07T07:06:30;18.60;;;14.37;;
15716;SDS011;7960;50.908;4.204;2022-12-07T07:08:57;14.93;;;10.17;;
15716;SDS011;7960;50.908;4.204;2022-12-07T07:11:24;13.33;;;9.57;;
15716;SDS011;7960;50.908;4.204;2022-12-07T07:13:51;15.03;;;9.97;;
15716;SDS011;7960;50.908;4.204;2022-12-07T07:16:18;14.83;;;9.50;;
15716;SDS011;7960;50.908;4.204;2022-12-07T07:18:46;14.57;;;10.50;;
15716;SDS011;7960;50.908;4.204;2022-12-07T07:21:12;15.43;;;9.97;;
15716;SDS011;7960;50.908;4.204;2022-12-07T07:23:41;14.60;;;10.47;;
15716;SDS011;7960;50.908;4.204;2022-12-07T07:26:07;16.87;;;9.67;;
15716;SDS011;7960;50.908;4.204;2022-12-07T07:28:34;14.60;;;9.23;;
15716;SDS011;7960;50.908;4.204;2022-12-07T07:31:01;13.10;;;9.10;;
15716;SDS011;7960;50.908;4.204;2022-12-07T07:33:28;14.60;;;8.90;;
15716;SDS011;7960;50.908;4.204;2022-12-07T07:35:55;11.63;;;8.37;;
15716;SDS011;7960;50.908;4.204;2022-12-07T07:38:22;15.80;;;8.77;;
15716;SDS011;7960;50.908;4.204;2022-12-07T07:40:50;11.10;;;9.23;;
15716;SDS011;7960;50.908;4.204;2022-12-07T07:43:21;14.20;;;8.97;;
15716;SDS011;7960;50.908;4.204;2022-12-07T07:45:49;12.93;;;9.90;;
15716;SDS011;7960;50.908;4.204;2022-12-07T07:48:16;14.30;;;9.77;;
15716;SDS011;7960;50.908;4.204;2022-12-07T07:50:43;14.40;;;10.33;;
15716;SDS011;7960;50.908;4.204;2022-12-07T07:53:11;13.20;;;9.80;;
15716;SDS011;7960;50.908;4.204;2022-12-07T07:55:39;16.90;;;9.83;;
15716;SDS011;7960;50.908;4.204;2022-12-07T07:58:07;15.47;;;10.30;;
15716;SDS011;7960;50.908;4.204;2022-12-07T08:00:34;13.87;;;9.93;;
15716;SDS011;7960;50.908;4.204;2022-12-07T08:03:01;16.60;;;10.40;;
15716;SDS011;7960;50.908;4.204;2022-12-07T08:05:28;15.60;;;10.50;;
15716;SDS011;7960;50.908;4.204;2022-12-07T08:07:57;16.53;;;11.20;;
15716;SDS011;7960;50.908;4.204;2022-12-07T08:10:24;16.10;;;10.83;;
15716;SDS011;7960;50.908;4.204;2022-12-07T08:12:50;16.23;;;10.30;;
15716;SDS011;7960;50.908;4.204;2022-12-07T08:15:36;14.63;;;9.97;;
15716;SDS011;7960;50.908;4.204;2022-12-07T08:18:04;18.73;;;10.77;;
15716;SDS011;7960;50.908;4.204;2022-12-07T08:20:32;13.67;;;10.67;;
15716;SDS011;7960;50.908;4.204;2022-12-07T08:23:00;21.60;;;11.37;;
15716;SDS011;7960;50.908;4.204;2022-12-07T08:25:27;18.00;;;10.87;;
15716;SDS011;7960;50.908;4.204;2022-12-07T08:30:30;15.60;;;10.23;;
15716;SDS011;7960;50.908;4.204;2022-12-07T08:32:59;17.53;;;10.23;;
15716;SDS011;7960;50.908;4.204;2022-12-07T08:35:25;13.20;;;9.80;;
15716;SDS011;7960;50.908;4.204;2022-12-07T08:37:52;14.73;;;9.70;;
15716;SDS011;7960;50.908;4.204;2022-12-07T08:40:19;14.70;;;10.03;;
15716;SDS011;7960;50.908;4.204;2022-12-07T08:42:50;14.93;;;9.70;;
15716;SDS011;7960;50.908;4.204;2022-12-07T08:45:20;14.20;;;9.77;;
15716;SDS011;7960;50.908;4.204;2022-12-07T08:47:50;13.17;;;9.77;;
15716;SDS011;7960;50.908;4.204;2022-12-07T08:50:21;16.43;;;10.10;;
15716;SDS011;7960;50.908;4.204;2022-12-07T08:52:51;14.63;;;10.40;;
15716;SDS011;7960;50.908;4.204;2022-12-07T08:55:19;18.77;;;10.07;;
15716;SDS011;7960;50.908;4.204;2022-12-07T08:57:47;14.73;;;10.10;;
15716;SDS011;7960;50.908;4.204;2022-12-07T09:00:15;15.23;;;9.30;;
15716;SDS011;7960;50.908;4.204;2022-12-07T09:02:43;18.80;;;10.50;;
15716;SDS011;7960;50.908;4.204;2022-12-07T09:05:10;12.37;;;9.97;;
15716;SDS011;7960;50.908;4.204;2022-12-07T09:07:41;14.23;;;10.20;;
15716;SDS011;7960;50.908;4.204;2022-12-07T09:10:11;17.67;;;11.23;;
15716;SDS011;7960;50.908;4.204;2022-12-07T09:12:38;16.80;;;10.83;;
15716;SDS011;7960;50.908;4.204;2022-12-07T09:15:05;16.33;;;11.17;;
15716;SDS011;7960;50.908;4.204;2022-12-07T09:17:33;18.80;;;11.63;;
15716;SDS011;7960;50.908;4.204;2022-12-07T09:20:01;14.73;;;11.03;;
15716;SDS011;7960;50.908;4.204;2022-12-07T09:22:28;17.77;;;12.10;;
15716;SDS011;7960;50.908;4.204;2022-12-07T09:24:59;18.90;;;12.77;;
15716;SDS011;7960;50.908;4.204;2022-12-07T09:27:27;18.40;;;11.20;;
15716;SDS011;7960;50.908;4.204;2022-12-07T09:29:59;18.17;;;11.47;;
15716;SDS011;7960;50.908;4.204;2022-12-07T09:32:25;17.20;;;11.53;;
15716;SDS011;7960;50.908;4.204;2022-12-07T09:34:52;19.97;;;12.77;;
15716;SDS011;7960;50.908;4.204;2022-12-07T09:37:19;14.13;;;11.73;;
15716;SDS011;7960;50.908;4.204;2022-12-07T09:39:46;15.20;;;10.27;;
15716;SDS011;7960;50.908;4.204;2022-12-07T09:42:18;11.30;;;9.47;;
15716;SDS011;7960;50.908;4.204;2022-12-07T09:44:53;13.90;;;9.47;;
15716;SDS011;7960;50.908;4.204;2022-12-07T09:47:20;15.17;;;9.43;;
15716;SDS011;7960;50.908;4.204;2022-12-07T09:49:47;16.70;;;9.47;;
15716;SDS011;7960;50.908;4.204;2022-12-07T09:52:18;14.70;;;9.47;;
15716;SDS011;7960;50.908;4.204;2022-12-07T09:54:49;11.47;;;9.23;;
15716;SDS011;7960;50.908;4.204;2022-12-07T09:57:18;13.40;;;9.83;;
15716;SDS011;7960;50.908;4.204;2022-12-07T09:59:51;14.13;;;10.10;;
15716;SDS011;7960;50.908;4.204;2022-12-07T10:02:23;14.57;;;10.20;;
15716;SDS011;7960;50.908;4.204;2022-12-07T10:04:57;14.60;;;9.97;;
15716;SDS011;7960;50.908;4.204;2022-12-07T10:07:25;15.60;;;10.90;;
15716;SDS011;7960;50.908;4.204;2022-12-07T10:09:51;14.20;;;10.10;;
15716;SDS011;7960;50.908;4.204;2022-12-07T10:12:20;14.37;;;10.33;;
15716;SDS011;7960;50.908;4.204;2022-12-07T10:14:54;17.17;;;10.00;;
15716;SDS011;7960;50.908;4.204;2022-12-07T10:17:26;16.13;;;10.07;;
15716;SDS011;7960;50.908;4.204;2022-12-07T10:20:13;14.97;;;9.07;;
15716;SDS011;7960;50.908;4.204;2022-12-07T10:22:55;12.40;;;9.60;;
15716;SDS011;7960;50.908;4.204;2022-12-07T10:25:25;12.37;;;9.13;;
15716;SDS011;7960;50.908;4.204;2022-12-07T10:27:59;11.67;;;8.50;;
15716;SDS011;7960;50.908;4.204;2022-12-07T10:30:28;12.37;;;8.77;;
15716;SDS011;7960;50.908;4.204;2022-12-07T10:32:56;14.77;;;8.10;;
15716;SDS011;7960;50.908;4.204;2022-12-07T10:35:24;10.80;;;8.37;;
15716;SDS011;7960;50.908;4.204;2022-12-07T10:37:53;12.80;;;7.70;;
15716;SDS011;7960;50.908;4.204;2022-12-07T10:40:25;14.53;;;8.53;;
15716;SDS011;7960;50.908;4.204;2022-12-07T10:43:03;12.13;;;7.97;;
15716;SDS011;7960;50.908;4.204;2022-12-07T10:45:31;14.80;;;8.77;;
15716;SDS011;7960;50.908;4.204;2022-12-07T10:47:59;10.77;;;7.67;;
15716;SDS011;7960;50.908;4.204;2022-12-07T10:50:56;11.00;;;7.67;;
15716;SDS011;7960;50.908;4.204;2022-12-07T11:02:20;11.07;;;7.23;;
15716;SDS011;7960;50.908;4.204;2022-12-07T11:04:55;10.60;;;6.87;;
15716;SDS011;7960;50.908;4.204;2022-12-07T11:07:34;12.67;;;7.83;;
15716;SDS011;7960;50.908;4.204;2022-12-07T11:10:08;17.73;;;9.50;;
15716;SDS011;7960;50.908;4.204;2022-12-07T11:12:49;14.23;;;9.57;;
15716;SDS011;7960;50.908;4.204;2022-12-07T11:15:26;13.73;;;8.77;;
15716;SDS011;7960;50.908;4.204;2022-12-07T11:18:00;9.67;;;6.80;;
15716;SDS011;7960;50.908;4.204;2022-12-07T11:20:38;7.57;;;5.73;;
15716;SDS011;7960;50.908;4.204;2022-12-07T11:23:13;16.87;;;6.50;;
15716;SDS011;7960;50.908;4.204;2022-12-07T11:25:52;14.23;;;5.73;;
15716;SDS011;7960;50.908;4.204;2022-12-07T11:28:26;8.67;;;5.00;;
15716;SDS011;7960;50.908;4.204;2022-12-07T11:31:07;8.80;;;5.57;;
15716;SDS011;7960;50.908;4.204;2022-12-07T11:33:47;10.27;;;5.70;;
15716;SDS011;7960;50.908;4.204;2022-12-07T11:36:27;7.93;;;4.90;;
15716;SDS011;7960;50.908;4.204;2022-12-07T11:39:00;9.90;;;4.90;;
15716;SDS011;7960;50.908;4.204;2022-12-07T11:41:29;8.57;;;4.20;;
15716;SDS011;7960;50.908;4.204;2022-12-07T11:44:02;7.63;;;4.00;;
15716;SDS011;7960;50.908;4.204;2022-12-07T11:46:37;7.63;;;3.70;;
15716;SDS011;7960;50.908;4.204;2022-12-07T11:49:16;5.10;;;3.13;;
15716;SDS011;7960;50.908;4.204;2022-12-07T11:51:51;6.67;;;3.37;;
15716;SDS011;7960;50.908;4.204;2022-12-07T11:54:21;5.30;;;3.27;;
15716;SDS011;7960;50.908;4.204;2022-12-07T11:56:53;6.73;;;3.20;;
15716;SDS011;7960;50.908;4.204;2022-12-07T11:59:27;6.80;;;3.17;;
15716;SDS011;7960;50.908;4.204;2022-12-07T12:02:00;7.37;;;3.27;;
15716;SDS011;7960;50.908;4.204;2022-12-07T12:04:42;6.30;;;3.47;;
15716;SDS011;7960;50.908;4.204;2022-12-07T12:07:19;8.17;;;3.87;;
15716;SDS011;7960;50.908;4.204;2022-12-07T12:09:51;5.63;;;3.33;;
15716;SDS011;7960;50.908;4.204;2022-12-07T12:12:39;5.43;;;3.03;;
15716;SDS011;7960;50.908;4.204;2022-12-07T12:15:38;4.37;;;2.47;;
15716;SDS011;7960;50.908;4.204;2022-12-07T12:18:25;4.80;;;2.63;;
15716;SDS011;7960;50.908;4.204;2022-12-07T12:21:03;4.67;;;2.50;;
15716;SDS011;7960;50.908;4.204;2022-12-07T12:23:35;5.97;;;2.70;;
15716;SDS011;7960;50.908;4.204;2022-12-07T12:26:07;6.43;;;2.87;;
15716;SDS011;7960;50.908;4.204;2022-12-07T12:28:48;5.80;;;2.60;;
15716;SDS011;7960;50.908;4.204;2022-12-07T12:31:29;3.77;;;2.47;;
15716;SDS011;7960;50.908;4.204;2022-12-07T12:34:02;8.07;;;4.73;;
15716;SDS011;7960;50.908;4.204;2022-12-07T12:36:44;6.27;;;4.33;;
15716;SDS011;7960;50.908;4.204;2022-12-07T12:39:13;5.03;;;2.93;;
15716;SDS011;7960;50.908;4.204;2022-12-07T12:41:52;7.00;;;3.43;;
15716;SDS011;7960;50.908;4.204;2022-12-07T12:47:42;6.20;;;3.50;;
15716;SDS011;7960;50.908;4.204;2022-12-07T12:50:21;6.53;;;3.40;;
15716;SDS011;7960;50.908;4.204;2022-12-07T12:52:52;6.33;;;3.67;;
15716;SDS011;7960;50.908;4.204;2022-12-07T12:58:37;6.10;;;3.20;;
15716;SDS011;7960;50.908;4.204;2022-12-07T13:04:14;4.87;;;3.30;;
15716;SDS011;7960;50.908;4.204;2022-12-07T13:06:48;5.63;;;3.47;;
15716;SDS011;7960;50.908;4.204;2022-12-07T13:09:20;10.33;;;3.60;;
15716;SDS011;7960;50.908;4.204;2022-12-07T13:11:49;5.47;;;3.20;;
15716;SDS011;7960;50.908;4.204;2022-12-07T13:14:51;5.20;;;3.13;;
15716;SDS011;7960;50.908;4.204;2022-12-07T13:20:43;8.80;;;3.60;;
15716;SDS011;7960;50.908;4.204;2022-12-07T13:23:16;4.30;;;3.20;;
15716;SDS011;7960;50.908;4.204;2022-12-07T13:25:53;5.13;;;3.07;;
15716;SDS011;7960;50.908;4.204;2022-12-07T13:28:26;6.77;;;3.50;;
15716;SDS011;7960;50.908;4.204;2022-12-07T13:33:54;4.13;;;2.70;;
15716;SDS011;7960;50.908;4.204;2022-12-07T13:36:22;5.90;;;2.63;;
15716;SDS011;7960;50.908;4.204;2022-12-07T13:38:56;5.93;;;2.10;;
15716;SDS011;7960;50.908;4.204;2022-12-07T13:41:26;5.67;;;2.33;;
15716;SDS011;7960;50.908;4.204;2022-12-07T13:43:59;5.47;;;1.73;;
15716;SDS011;7960;50.908;4.204;2022-12-07T13:46:31;6.07;;;2.17;;
15716;SDS011;7960;50.908;4.204;2022-12-07T13:49:15;6.43;;;2.13;;
15716;SDS011;7960;50.908;4.204;2022-12-07T13:51:44;4.47;;;2.20;;
15716;SDS011;7960;50.908;4.204;2022-12-07T13:54:12;5.10;;;2.30;;
15716;SDS011;7960;50.908;4.204;2022-12-07T13:56:41;2.53;;;2.30;;
15716;SDS011;7960;50.908;4.204;2022-12-07T13:59:19;4.13;;;2.60;;
15716;SDS011;7960;50.908;4.204;2022-12-07T14:01:48;7.00;;;3.53;;
15716;SDS011;7960;50.908;4.204;2022-12-07T14:04:17;3.90;;;3.07;;
15716;SDS011;7960;50.908;4.204;2022-12-07T14:06:57;4.83;;;3.30;;
15716;SDS011;7960;50.908;4.204;2022-12-07T14:09:26;8.20;;;4.17;;
15716;SDS011;7960;50.908;4.204;2022-12-07T14:11:56;6.67;;;3.73;;
15716;SDS011;7960;50.908;4.204;2022-12-07T14:14:25;5.03;;;2.40;;
15716;SDS011;7960;50.908;4.204;2022-12-07T14:16:55;2.57;;;1.73;;
15716;SDS011;7960;50.908;4.204;2022-12-07T14:19:41;2.87;;;1.20;;
15716;SDS011;7960;50.908;4.204;2022-12-07T14:22:20;6.07;;;1.90;;
15716;SDS011;7960;50.908;4.204;2022-12-07T14:24:50;4.47;;;2.33;;
15716;SDS011;7960;50.908;4.204;2022-12-07T14:27:19;3.83;;;1.90;;
15716;SDS011;7960;50.908;4.204;2022-12-07T14:29:50;2.53;;;2.30;;
15716;SDS011;7960;50.908;4.204;2022-12-07T14:32:19;3.10;;;2.40;;
15716;SDS011;7960;50.908;4.204;2022-12-07T14:34:53;2.43;;;2.10;;
15716;SDS011;7960;50.908;4.204;2022-12-07T14:37:24;3.40;;;2.03;;
15716;SDS011;7960;50.908;4.204;2022-12-07T14:39:51;4.23;;;2.30;;
15716;SDS011;7960;50.908;4.204;2022-12-07T14:42:20;5.70;;;2.53;;
15716;SDS011;7960;50.908;4.204;2022-12-07T14:44:47;6.90;;;2.47;;
15716;SDS011;7960;50.908;4.204;2022-12-07T14:47:14;7.83;;;2.23;;
15716;SDS011;7960;50.908;4.204;2022-12-07T14:49:41;5.63;;;2.23;;
15716;SDS011;7960;50.908;4.204;2022-12-07T14:52:11;4.83;;;2.83;;
15716;SDS011;7960;50.908;4.204;2022-12-07T14:54:43;4.53;;;2.43;;
15716;SDS011;7960;50.908;4.204;2022-12-07T14:57:10;4.33;;;2.30;;
15716;SDS011;7960;50.908;4.204;2022-12-07T14:59:39;5.30;;;2.63;;
15716;SDS011;7960;50.908;4.204;2022-12-07T15:02:09;4.60;;;2.93;;
15716;SDS011;7960;50.908;4.204;2022-12-07T15:04:37;6.40;;;3.23;;
15716;SDS011;7960;50.908;4.204;2022-12-07T15:07:05;4.07;;;3.23;;
15716;SDS011;7960;50.908;4.204;2022-12-07T15:09:39;6.03;;;3.20;;
15716;SDS011;7960;50.908;4.204;2022-12-07T15:12:06;6.53;;;2.87;;
15716;SDS011;7960;50.908;4.204;2022-12-07T15:14:33;6.77;;;4.80;;
15716;SDS011;7960;50.908;4.204;2022-12-07T15:17:13;9.07;;;4.63;;
15716;SDS011;7960;50.908;4.204;2022-12-07T15:19:40;7.17;;;3.57;;
15716;SDS011;7960;50.908;4.204;2022-12-07T15:22:08;6.63;;;3.03;;
15716;SDS011;7960;50.908;4.204;2022-12-07T15:24:35;5.20;;;3.17;;
15716;SDS011;7960;50.908;4.204;2022-12-07T15:27:03;5.43;;;3.53;;
15716;SDS011;7960;50.908;4.204;2022-12-07T15:29:30;4.97;;;3.30;;